sensor_id;sensor_type;location;lat;lon;timestamp;P1;durP1;ratioP1;P2;durP2;ratioP2
78412;SDS011;67707;52.348;13.660;2023-03-01T00:01:46;2.22;;;1.80;;
78412;SDS011;67707;52.348;13.660;2023-03-01T00:04:12;3.35;;;1.98;;
78412;SDS011;67707;52.348;13.660;2023-03-01T00:06:37;2.03;;;1.50;;
78412;SDS011;67707;52.348;13.660;2023-03-01T00:09:03;2.53;;;1.40;;
78412;SDS011;67707;52.348;13.660;2023-03-01T00:11:29;2.20;;;1.20;;
78412;SDS011;67707;52.348;13.660;2023-03-01T00:13:57;2.95;;;1.85;;
78412;SDS011;67707;52.348;13.660;2023-03-01T00:16:33;2.35;;;1.85;;
78412;SDS011;67707;52.348;13.660;2023-03-01T00:19:00;2.20;;;1.45;;
78412;SDS011;67707;52.348;13.660;2023-03-01T00:21:26;2.22;;;1.50;;
78412;SDS011;67707;52.348;13.660;2023-03-01T00:23:52;3.13;;;2.13;;
78412;SDS011;67707;52.348;13.660;2023-03-01T00:26:18;3.63;;;3.33;;
78412;SDS011;67707;52.348;13.660;2023-03-01T00:28:44;2.45;;;1.63;;
78412;SDS011;67707;52.348;13.660;2023-03-01T00:31:11;2.35;;;2.08;;
78412;SDS011;67707;52.348;13.660;2023-03-01T00:33:38;2.30;;;1.60;;
78412;SDS011;67707;52.348;13.660;2023-03-01T00:36:04;2.95;;;2.20;;
78412;SDS011;67707;52.348;13.660;2023-03-01T00:38:30;2.20;;;1.90;;
78412;SDS011;67707;52.348;13.660;2023-03-01T00:40:56;3.13;;;2.10;;
78412;SDS011;67707;52.348;13.660;2023-03-01T00:43:28;2.75;;;2.20;;
78412;SDS011;67707;52.348;13.660;2023-03-01T00:45:54;2.33;;;1.83;;
78412;SDS011;67707;52.348;13.660;2023-03-01T00:48:19;2.27;;;1.47;;
78412;SDS011;67707;52.348;13.660;2023-03-01T00:50:44;2.07;;;1.43;;
78412;SDS011;67707;52.348;13.660;2023-03-01T00:53:10;2.23;;;1.57;;
78412;SDS011;67707;52.348;13.660;2023-03-01T00:55:35;2.17;;;1.53;;
78412;SDS011;67707;52.348;13.660;2023-03-01T00:58:01;2.17;;;1.70;;
78412;SDS011;67707;52.348;13.660;2023-03-01T01:00:26;2.60;;;1.95;;
78412;SDS011;67707;52.348;13.660;2023-03-01T01:02:52;3.42;;;3.13;;
78412;SDS011;67707;52.348;13.660;2023-03-01T01:05:18;2.15;;;1.67;;
78412;SDS011;67707;52.348;13.660;2023-03-01T01:07:45;2.85;;;2.15;;
78412;SDS011;67707;52.348;13.660;2023-03-01T01:10:11;2.42;;;2.05;;
78412;SDS011;67707;52.348;13.660;2023-03-01T01:12:41;2.45;;;2.05;;
78412;SDS011;67707;52.348;13.660;2023-03-01T01:15:08;2.30;;;1.88;;
78412;SDS011;67707;52.348;13.660;2023-03-01T01:17:33;2.10;;;1.40;;
78412;SDS011;67707;52.348;13.660;2023-03-01T01:19:59;2.35;;;1.75;;
78412;SDS011;67707;52.348;13.660;2023-03-01T01:22:24;2.40;;;1.80;;
78412;SDS011;67707;52.348;13.660;2023-03-01T01:24:49;1.88;;;1.55;;
78412;SDS011;67707;52.348;13.660;2023-03-01T01:27:14;2.30;;;2.10;;
78412;SDS011;67707;52.348;13.660;2023-03-01T01:29:40;2.20;;;1.60;;
78412;SDS011;67707;52.348;13.660;2023-03-01T01:32:06;2.20;;;1.88;;
78412;SDS011;67707;52.348;13.660;2023-03-01T01:34:32;2.28;;;1.85;;
78412;SDS011;67707;52.348;13.660;2023-03-01T01:36:57;2.67;;;2.17;;
78412;SDS011;67707;52.348;13.660;2023-03-01T01:39:27;5.05;;;4.75;;
78412;SDS011;67707;52.348;13.660;2023-03-01T01:41:52;2.07;;;1.57;;
78412;SDS011;67707;52.348;13.660;2023-03-01T01:44:22;2.50;;;1.95;;
78412;SDS011;67707;52.348;13.660;2023-03-01T01:46:57;3.00;;;2.15;;
78412;SDS011;67707;52.348;13.660;2023-03-01T01:49:31;2.30;;;1.85;;
78412;SDS011;67707;52.348;13.660;2023-03-01T01:54:38;2.20;;;1.80;;
78412;SDS011;67707;52.348;13.660;2023-03-01T01:57:30;4.60;;;4.30;;
78412;SDS011;67707;52.348;13.660;2023-03-01T02:00:04;2.65;;;2.08;;
78412;SDS011;67707;52.348;13.660;2023-03-01T02:02:34;4.00;;;3.60;;
78412;SDS011;67707;52.348;13.660;2023-03-01T02:05:03;2.97;;;2.67;;
78412;SDS011;67707;52.348;13.660;2023-03-01T02:07:35;2.30;;;1.67;;
78412;SDS011;67707;52.348;13.660;2023-03-01T02:10:03;2.70;;;2.50;;
78412;SDS011;67707;52.348;13.660;2023-03-01T02:12:29;3.90;;;3.60;;
78412;SDS011;67707;52.348;13.660;2023-03-01T02:14:54;2.30;;;1.98;;
78412;SDS011;67707;52.348;13.660;2023-03-01T02:17:20;2.47;;;1.73;;
78412;SDS011;67707;52.348;13.660;2023-03-01T02:24:55;2.63;;;1.97;;
78412;SDS011;67707;52.348;13.660;2023-03-01T02:29:49;2.40;;;1.55;;
78412;SDS011;67707;52.348;13.660;2023-03-01T02:32:15;2.10;;;1.58;;
78412;SDS011;67707;52.348;13.660;2023-03-01T02:34:41;2.40;;;1.88;;
78412;SDS011;67707;52.348;13.660;2023-03-01T02:37:08;2.63;;;1.58;;
78412;SDS011;67707;52.348;13.660;2023-03-01T02:39:39;2.80;;;2.33;;
78412;SDS011;67707;52.348;13.660;2023-03-01T02:42:07;2.70;;;1.95;;
78412;SDS011;67707;52.348;13.660;2023-03-01T02:44:36;2.92;;;2.22;;
78412;SDS011;67707;52.348;13.660;2023-03-01T02:47:02;2.20;;;1.70;;
78412;SDS011;67707;52.348;13.660;2023-03-01T02:49:29;2.63;;;2.17;;
78412;SDS011;67707;52.348;13.660;2023-03-01T02:56:58;2.33;;;2.10;;
78412;SDS011;67707;52.348;13.660;2023-03-01T02:59:24;3.15;;;2.85;;
78412;SDS011;67707;52.348;13.660;2023-03-01T03:01:52;2.42;;;2.20;;
78412;SDS011;67707;52.348;13.660;2023-03-01T03:04:18;4.47;;;4.17;;
78412;SDS011;67707;52.348;13.660;2023-03-01T03:06:44;2.58;;;2.03;;
78412;SDS011;67707;52.348;13.660;2023-03-01T03:09:11;2.50;;;2.10;;
78412;SDS011;67707;52.348;13.660;2023-03-01T03:11:37;2.10;;;1.75;;
78412;SDS011;67707;52.348;13.660;2023-03-01T03:14:04;3.15;;;2.63;;
78412;SDS011;67707;52.348;13.660;2023-03-01T03:16:30;2.50;;;1.55;;
78412;SDS011;67707;52.348;13.660;2023-03-01T03:18:56;2.38;;;1.75;;
78412;SDS011;67707;52.348;13.660;2023-03-01T03:21:30;2.22;;;2.00;;
78412;SDS011;67707;52.348;13.660;2023-03-01T03:23:58;2.47;;;2.25;;
78412;SDS011;67707;52.348;13.660;2023-03-01T03:26:23;2.80;;;2.45;;
78412;SDS011;67707;52.348;13.660;2023-03-01T03:28:49;2.90;;;2.38;;
78412;SDS011;67707;52.348;13.660;2023-03-01T03:31:14;2.45;;;2.10;;
78412;SDS011;67707;52.348;13.660;2023-03-01T03:33:40;2.45;;;1.85;;
78412;SDS011;67707;52.348;13.660;2023-03-01T03:36:05;2.25;;;2.05;;
78412;SDS011;67707;52.348;13.660;2023-03-01T03:38:31;2.83;;;2.10;;
78412;SDS011;67707;52.348;13.660;2023-03-01T03:41:00;2.10;;;1.85;;
78412;SDS011;67707;52.348;13.660;2023-03-01T03:43:28;2.15;;;1.85;;
78412;SDS011;67707;52.348;13.660;2023-03-01T03:45:55;2.65;;;2.45;;
78412;SDS011;67707;52.348;13.660;2023-03-01T03:48:22;2.47;;;1.90;;
78412;SDS011;67707;52.348;13.660;2023-03-01T03:50:49;2.40;;;2.20;;
78412;SDS011;67707;52.348;13.660;2023-03-01T03:53:16;2.00;;;1.70;;
78412;SDS011;67707;52.348;13.660;2023-03-01T03:55:41;2.92;;;2.30;;
78412;SDS011;67707;52.348;13.660;2023-03-01T03:58:07;2.42;;;1.83;;
78412;SDS011;67707;52.348;13.660;2023-03-01T04:00:38;3.90;;;3.60;;
78412;SDS011;67707;52.348;13.660;2023-03-01T04:03:06;2.30;;;1.88;;
78412;SDS011;67707;52.348;13.660;2023-03-01T04:05:31;2.30;;;1.75;;
78412;SDS011;67707;52.348;13.660;2023-03-01T04:07:57;2.45;;;1.95;;
78412;SDS011;67707;52.348;13.660;2023-03-01T04:10:33;2.78;;;2.08;;
78412;SDS011;67707;52.348;13.660;2023-03-01T04:13:06;2.35;;;2.00;;
78412;SDS011;67707;52.348;13.660;2023-03-01T04:15:32;2.30;;;1.67;;
78412;SDS011;67707;52.348;13.660;2023-03-01T04:17:58;2.15;;;1.60;;
78412;SDS011;67707;52.348;13.660;2023-03-01T04:20:26;2.55;;;2.28;;
78412;SDS011;67707;52.348;13.660;2023-03-01T04:25:48;197.98;;;30.30;;
78412;SDS011;67707;52.348;13.660;2023-03-01T04:30:44;2.60;;;2.38;;
78412;SDS011;67707;52.348;13.660;2023-03-01T04:33:09;2.23;;;1.60;;
78412;SDS011;67707;52.348;13.660;2023-03-01T04:35:35;2.58;;;2.08;;
78412;SDS011;67707;52.348;13.660;2023-03-01T04:38:01;2.05;;;1.52;;
78412;SDS011;67707;52.348;13.660;2023-03-01T04:40:27;2.33;;;1.92;;
78412;SDS011;67707;52.348;13.660;2023-03-01T04:42:53;2.53;;;2.08;;
78412;SDS011;67707;52.348;13.660;2023-03-01T04:45:18;2.40;;;2.10;;
78412;SDS011;67707;52.348;13.660;2023-03-01T04:47:45;2.38;;;2.13;;
78412;SDS011;67707;52.348;13.660;2023-03-01T04:50:11;2.50;;;1.90;;
78412;SDS011;67707;52.348;13.660;2023-03-01T04:52:39;2.17;;;1.95;;
78412;SDS011;67707;52.348;13.660;2023-03-01T04:55:05;2.65;;;2.42;;
78412;SDS011;67707;52.348;13.660;2023-03-01T04:57:31;2.25;;;2.05;;
78412;SDS011;67707;52.348;13.660;2023-03-01T04:59:56;2.28;;;1.77;;
78412;SDS011;67707;52.348;13.660;2023-03-01T05:02:22;5.05;;;4.65;;
78412;SDS011;67707;52.348;13.660;2023-03-01T05:04:47;2.43;;;1.80;;
78412;SDS011;67707;52.348;13.660;2023-03-01T05:07:13;2.45;;;2.05;;
78412;SDS011;67707;52.348;13.660;2023-03-01T05:09:44;2.53;;;2.10;;
78412;SDS011;67707;52.348;13.660;2023-03-01T05:12:12;2.70;;;2.15;;
78412;SDS011;67707;52.348;13.660;2023-03-01T05:14:38;2.67;;;2.47;;
78412;SDS011;67707;52.348;13.660;2023-03-01T05:17:04;2.17;;;1.77;;
78412;SDS011;67707;52.348;13.660;2023-03-01T05:19:30;4.50;;;4.20;;
78412;SDS011;67707;52.348;13.660;2023-03-01T05:21:56;2.30;;;1.85;;
78412;SDS011;67707;52.348;13.660;2023-03-01T05:24:31;2.70;;;1.85;;
78412;SDS011;67707;52.348;13.660;2023-03-01T05:26:58;3.25;;;2.55;;
78412;SDS011;67707;52.348;13.660;2023-03-01T05:29:24;4.63;;;3.13;;
78412;SDS011;67707;52.348;13.660;2023-03-01T05:31:58;3.80;;;2.65;;
78412;SDS011;67707;52.348;13.660;2023-03-01T05:34:28;3.10;;;2.53;;
78412;SDS011;67707;52.348;13.660;2023-03-01T05:36:55;2.38;;;2.17;;
78412;SDS011;67707;52.348;13.660;2023-03-01T05:39:21;2.83;;;2.53;;
78412;SDS011;67707;52.348;13.660;2023-03-01T05:41:54;4.75;;;4.45;;
78412;SDS011;67707;52.348;13.660;2023-03-01T05:44:20;3.25;;;2.95;;
78412;SDS011;67707;52.348;13.660;2023-03-01T05:46:46;2.90;;;2.20;;
78412;SDS011;67707;52.348;13.660;2023-03-01T05:49:12;3.08;;;2.65;;
78412;SDS011;67707;52.348;13.660;2023-03-01T05:51:38;5.68;;;5.28;;
78412;SDS011;67707;52.348;13.660;2023-03-01T05:54:04;2.40;;;2.10;;
78412;SDS011;67707;52.348;13.660;2023-03-01T05:56:31;2.50;;;1.88;;
78412;SDS011;67707;52.348;13.660;2023-03-01T05:58:58;3.17;;;2.60;;
78412;SDS011;67707;52.348;13.660;2023-03-01T06:01:24;2.60;;;1.95;;
78412;SDS011;67707;52.348;13.660;2023-03-01T06:03:49;2.77;;;2.10;;
78412;SDS011;67707;52.348;13.660;2023-03-01T06:06:14;2.70;;;1.90;;
78412;SDS011;67707;52.348;13.660;2023-03-01T06:08:40;2.90;;;2.35;;
78412;SDS011;67707;52.348;13.660;2023-03-01T06:11:05;2.93;;;2.60;;
78412;SDS011;67707;52.348;13.660;2023-03-01T06:13:32;2.88;;;2.15;;
78412;SDS011;67707;52.348;13.660;2023-03-01T06:15:57;5.00;;;4.70;;
78412;SDS011;67707;52.348;13.660;2023-03-01T06:18:22;5.35;;;4.95;;
78412;SDS011;67707;52.348;13.660;2023-03-01T06:20:54;2.90;;;2.10;;
78412;SDS011;67707;52.348;13.660;2023-03-01T06:23:20;2.92;;;2.63;;
78412;SDS011;67707;52.348;13.660;2023-03-01T06:25:46;2.42;;;2.10;;
78412;SDS011;67707;52.348;13.660;2023-03-01T06:28:11;2.47;;;2.10;;
78412;SDS011;67707;52.348;13.660;2023-03-01T06:30:36;3.00;;;2.53;;
78412;SDS011;67707;52.348;13.660;2023-03-01T06:33:02;2.88;;;2.10;;
78412;SDS011;67707;52.348;13.660;2023-03-01T06:35:30;3.50;;;1.60;;
78412;SDS011;67707;52.348;13.660;2023-03-01T06:37:56;2.78;;;2.25;;
78412;SDS011;67707;52.348;13.660;2023-03-01T06:40:22;2.92;;;2.63;;
78412;SDS011;67707;52.348;13.660;2023-03-01T06:42:49;2.88;;;2.13;;
78412;SDS011;67707;52.348;13.660;2023-03-01T06:45:15;3.65;;;3.35;;
78412;SDS011;67707;52.348;13.660;2023-03-01T06:47:41;2.90;;;2.40;;
78412;SDS011;67707;52.348;13.660;2023-03-01T06:50:07;2.53;;;2.00;;
78412;SDS011;67707;52.348;13.660;2023-03-01T06:52:33;2.80;;;2.22;;
78412;SDS011;67707;52.348;13.660;2023-03-01T06:54:58;3.00;;;2.50;;
78412;SDS011;67707;52.348;13.660;2023-03-01T06:57:24;3.38;;;2.40;;
78412;SDS011;67707;52.348;13.660;2023-03-01T06:59:49;2.67;;;2.10;;
78412;SDS011;67707;52.348;13.660;2023-03-01T07:02:15;2.80;;;2.60;;
78412;SDS011;67707;52.348;13.660;2023-03-01T07:04:41;2.50;;;2.05;;
78412;SDS011;67707;52.348;13.660;2023-03-01T07:07:06;2.65;;;2.30;;
78412;SDS011;67707;52.348;13.660;2023-03-01T07:09:32;2.58;;;2.10;;
78412;SDS011;67707;52.348;13.660;2023-03-01T07:11:57;3.30;;;2.33;;
78412;SDS011;67707;52.348;13.660;2023-03-01T07:14:23;2.83;;;2.45;;
78412;SDS011;67707;52.348;13.660;2023-03-01T07:16:54;2.67;;;2.00;;
78412;SDS011;67707;52.348;13.660;2023-03-01T07:19:20;2.55;;;1.98;;
78412;SDS011;67707;52.348;13.660;2023-03-01T07:21:46;3.88;;;2.38;;
78412;SDS011;67707;52.348;13.660;2023-03-01T07:24:11;2.80;;;2.50;;
78412;SDS011;67707;52.348;13.660;2023-03-01T07:26:36;2.97;;;2.23;;
78412;SDS011;67707;52.348;13.660;2023-03-01T07:29:03;2.83;;;2.45;;
78412;SDS011;67707;52.348;13.660;2023-03-01T07:31:29;2.60;;;2.33;;
78412;SDS011;67707;52.348;13.660;2023-03-01T07:33:54;3.20;;;2.53;;
78412;SDS011;67707;52.348;13.660;2023-03-01T07:36:20;3.20;;;2.25;;
78412;SDS011;67707;52.348;13.660;2023-03-01T07:38:47;4.35;;;2.75;;
78412;SDS011;67707;52.348;13.660;2023-03-01T07:41:12;2.80;;;2.13;;
78412;SDS011;67707;52.348;13.660;2023-03-01T07:43:38;3.33;;;3.03;;
78412;SDS011;67707;52.348;13.660;2023-03-01T07:46:03;3.03;;;2.72;;
78412;SDS011;67707;52.348;13.660;2023-03-01T07:48:30;2.90;;;2.15;;
78412;SDS011;67707;52.348;13.660;2023-03-01T07:50:59;3.17;;;2.67;;
78412;SDS011;67707;52.348;13.660;2023-03-01T07:53:25;3.00;;;2.70;;
78412;SDS011;67707;52.348;13.660;2023-03-01T07:55:59;5.88;;;5.40;;
78412;SDS011;67707;52.348;13.660;2023-03-01T07:58:35;3.63;;;3.20;;
78412;SDS011;67707;52.348;13.660;2023-03-01T08:01:03;3.08;;;2.60;;
78412;SDS011;67707;52.348;13.660;2023-03-01T08:03:29;3.47;;;3.00;;
78412;SDS011;67707;52.348;13.660;2023-03-01T08:05:54;3.28;;;2.97;;
78412;SDS011;67707;52.348;13.660;2023-03-01T08:08:20;4.70;;;4.28;;
78412;SDS011;67707;52.348;13.660;2023-03-01T08:10:45;6.30;;;5.60;;
78412;SDS011;67707;52.348;13.660;2023-03-01T08:13:10;6.50;;;5.15;;
78412;SDS011;67707;52.348;13.660;2023-03-01T08:15:36;11.98;;;10.30;;
78412;SDS011;67707;52.348;13.660;2023-03-01T08:18:01;12.00;;;9.57;;
78412;SDS011;67707;52.348;13.660;2023-03-01T08:20:26;8.45;;;7.40;;
78412;SDS011;67707;52.348;13.660;2023-03-01T08:22:52;18.47;;;16.43;;
78412;SDS011;67707;52.348;13.660;2023-03-01T08:25:17;24.03;;;21.63;;
78412;SDS011;67707;52.348;13.660;2023-03-01T08:27:42;25.53;;;22.83;;
78412;SDS011;67707;52.348;13.660;2023-03-01T08:30:08;25.02;;;22.33;;
78412;SDS011;67707;52.348;13.660;2023-03-01T08:32:35;17.58;;;15.68;;
78412;SDS011;67707;52.348;13.660;2023-03-01T08:35:02;12.88;;;11.48;;
78412;SDS011;67707;52.348;13.660;2023-03-01T08:37:27;11.68;;;10.48;;
78412;SDS011;67707;52.348;13.660;2023-03-01T08:39:55;8.35;;;7.45;;
78412;SDS011;67707;52.348;13.660;2023-03-01T08:42:21;6.13;;;5.20;;
78412;SDS011;67707;52.348;13.660;2023-03-01T08:44:46;5.30;;;4.15;;
78412;SDS011;67707;52.348;13.660;2023-03-01T08:47:12;7.50;;;5.28;;
78412;SDS011;67707;52.348;13.660;2023-03-01T08:49:37;4.40;;;4.00;;
78412;SDS011;67707;52.348;13.660;2023-03-01T08:52:02;6.72;;;6.03;;
78412;SDS011;67707;52.348;13.660;2023-03-01T08:54:28;4.53;;;4.13;;
78412;SDS011;67707;52.348;13.660;2023-03-01T08:56:53;4.90;;;4.38;;
78412;SDS011;67707;52.348;13.660;2023-03-01T08:59:19;4.38;;;3.55;;
78412;SDS011;67707;52.348;13.660;2023-03-01T09:01:44;3.60;;;2.70;;
78412;SDS011;67707;52.348;13.660;2023-03-01T09:04:10;4.15;;;3.63;;
78412;SDS011;67707;52.348;13.660;2023-03-01T09:06:36;4.57;;;4.18;;
78412;SDS011;67707;52.348;13.660;2023-03-01T09:09:02;4.22;;;3.83;;
78412;SDS011;67707;52.348;13.660;2023-03-01T09:11:28;3.28;;;2.72;;
78412;SDS011;67707;52.348;13.660;2023-03-01T09:13:54;3.10;;;2.65;;
78412;SDS011;67707;52.348;13.660;2023-03-01T09:16:20;3.80;;;3.50;;
78412;SDS011;67707;52.348;13.660;2023-03-01T09:18:48;3.33;;;2.58;;
78412;SDS011;67707;52.348;13.660;2023-03-01T09:21:15;2.67;;;1.83;;
78412;SDS011;67707;52.348;13.660;2023-03-01T09:23:43;3.95;;;3.65;;
78412;SDS011;67707;52.348;13.660;2023-03-01T09:26:10;2.40;;;1.58;;
78412;SDS011;67707;52.348;13.660;2023-03-01T09:28:47;2.30;;;1.42;;
78412;SDS011;67707;52.348;13.660;2023-03-01T09:31:13;2.13;;;1.63;;
78412;SDS011;67707;52.348;13.660;2023-03-01T09:33:39;1.98;;;1.60;;
78412;SDS011;67707;52.348;13.660;2023-03-01T09:36:06;2.65;;;2.00;;
78412;SDS011;67707;52.348;13.660;2023-03-01T09:40:59;2.20;;;1.60;;
78412;SDS011;67707;52.348;13.660;2023-03-01T09:43:26;1.70;;;1.35;;
78412;SDS011;67707;52.348;13.660;2023-03-01T09:46:05;1.98;;;1.55;;
78412;SDS011;67707;52.348;13.660;2023-03-01T09:48:36;1.70;;;1.30;;
78412;SDS011;67707;52.348;13.660;2023-03-01T09:51:12;2.13;;;1.95;;
78412;SDS011;67707;52.348;13.660;2023-03-01T09:53:43;2.45;;;2.25;;
78412;SDS011;67707;52.348;13.660;2023-03-01T09:58:49;1.55;;;1.10;;
78412;SDS011;67707;52.348;13.660;2023-03-01T10:06:44;1.73;;;1.45;;
78412;SDS011;67707;52.348;13.660;2023-03-01T10:09:29;1.63;;;1.40;;
78412;SDS011;67707;52.348;13.660;2023-03-01T10:11:58;1.70;;;1.25;;
78412;SDS011;67707;52.348;13.660;2023-03-01T10:14:36;1.92;;;1.50;;
78412;SDS011;67707;52.348;13.660;2023-03-01T10:17:07;1.73;;;0.98;;
78412;SDS011;67707;52.348;13.660;2023-03-01T10:19:41;1.65;;;1.13;;
78412;SDS011;67707;52.348;13.660;2023-03-01T10:22:13;2.08;;;1.45;;
78412;SDS011;67707;52.348;13.660;2023-03-01T10:24:41;1.75;;;1.20;;
78412;SDS011;67707;52.348;13.660;2023-03-01T10:27:26;2.30;;;2.10;;
78412;SDS011;67707;52.348;13.660;2023-03-01T10:32:23;1.55;;;1.02;;
78412;SDS011;67707;52.348;13.660;2023-03-01T10:34:48;3.30;;;3.10;;
78412;SDS011;67707;52.348;13.660;2023-03-01T10:37:14;1.90;;;1.48;;
78412;SDS011;67707;52.348;13.660;2023-03-01T10:40:04;1.45;;;0.90;;
78412;SDS011;67707;52.348;13.660;2023-03-01T10:42:56;1.77;;;1.35;;
78412;SDS011;67707;52.348;13.660;2023-03-01T10:50:29;1.95;;;1.67;;
78412;SDS011;67707;52.348;13.660;2023-03-01T10:52:59;1.63;;;1.25;;
78412;SDS011;67707;52.348;13.660;2023-03-01T10:55:35;1.45;;;1.00;;
78412;SDS011;67707;52.348;13.660;2023-03-01T11:00:55;1.50;;;0.90;;
78412;SDS011;67707;52.348;13.660;2023-03-01T11:03:23;1.73;;;1.30;;
78412;SDS011;67707;52.348;13.660;2023-03-01T11:05:51;2.42;;;2.22;;
78412;SDS011;67707;52.348;13.660;2023-03-01T11:08:53;1.50;;;1.05;;
78412;SDS011;67707;52.348;13.660;2023-03-01T11:16:34;1.52;;;0.93;;
78412;SDS011;67707;52.348;13.660;2023-03-01T11:21:53;1.80;;;0.95;;
78412;SDS011;67707;52.348;13.660;2023-03-01T11:24:40;1.60;;;1.50;;
78412;SDS011;67707;52.348;13.660;2023-03-01T11:27:18;1.52;;;1.35;;
78412;SDS011;67707;52.348;13.660;2023-03-01T11:32:35;1.58;;;1.30;;
78412;SDS011;67707;52.348;13.660;2023-03-01T11:35:10;1.95;;;0.90;;
78412;SDS011;67707;52.348;13.660;2023-03-01T11:38:02;1.33;;;0.93;;
78412;SDS011;67707;52.348;13.660;2023-03-01T11:40:46;1.30;;;0.70;;
78412;SDS011;67707;52.348;13.660;2023-03-01T11:51:57;1.52;;;0.93;;
78412;SDS011;67707;52.348;13.660;2023-03-01T11:57:38;1.50;;;1.08;;
78412;SDS011;67707;52.348;13.660;2023-03-01T12:05:24;2.60;;;2.40;;
78412;SDS011;67707;52.348;13.660;2023-03-01T12:07:53;1.60;;;1.05;;
78412;SDS011;67707;52.348;13.660;2023-03-01T12:10:28;1.40;;;0.85;;
78412;SDS011;67707;52.348;13.660;2023-03-01T12:15:48;1.73;;;1.35;;
78412;SDS011;67707;52.348;13.660;2023-03-01T12:51:08;1.33;;;1.08;;
78412;SDS011;67707;52.348;13.660;2023-03-01T12:53:39;1.75;;;1.50;;
78412;SDS011;67707;52.348;13.660;2023-03-01T12:56:06;1.63;;;1.17;;
78412;SDS011;67707;52.348;13.660;2023-03-01T13:06:52;2.22;;;1.35;;
78412;SDS011;67707;52.348;13.660;2023-03-01T13:12:42;1.60;;;1.35;;
78412;SDS011;67707;52.348;13.660;2023-03-01T13:15:35;1.30;;;1.05;;
78412;SDS011;67707;52.348;13.660;2023-03-01T13:18:03;1.52;;;0.90;;
78412;SDS011;67707;52.348;13.660;2023-03-01T13:20:44;1.25;;;0.80;;
78412;SDS011;67707;52.348;13.660;2023-03-01T13:28:40;1.33;;;1.02;;
78412;SDS011;67707;52.348;13.660;2023-03-01T13:33:46;1.73;;;1.17;;
78412;SDS011;67707;52.348;13.660;2023-03-01T13:36:46;2.03;;;1.30;;
78412;SDS011;67707;52.348;13.660;2023-03-01T13:41:50;2.88;;;2.67;;
78412;SDS011;67707;52.348;13.660;2023-03-01T13:46:48;1.60;;;1.20;;
78412;SDS011;67707;52.348;13.660;2023-03-01T13:49:14;1.52;;;1.23;;
78412;SDS011;67707;52.348;13.660;2023-03-01T13:51:41;1.38;;;1.27;;
78412;SDS011;67707;52.348;13.660;2023-03-01T13:54:10;1.45;;;1.23;;
78412;SDS011;67707;52.348;13.660;2023-03-01T13:56:37;1.48;;;1.38;;
78412;SDS011;67707;52.348;13.660;2023-03-01T13:59:04;1.17;;;1.08;;
78412;SDS011;67707;52.348;13.660;2023-03-01T14:01:32;1.63;;;1.45;;
78412;SDS011;67707;52.348;13.660;2023-03-01T14:04:00;1.73;;;1.20;;
78412;SDS011;67707;52.348;13.660;2023-03-01T14:06:27;1.88;;;1.67;;
78412;SDS011;67707;52.348;13.660;2023-03-01T14:17:14;1.13;;;0.90;;
78412;SDS011;67707;52.348;13.660;2023-03-01T14:19:43;2.00;;;1.08;;
78412;SDS011;67707;52.348;13.660;2023-03-01T14:22:13;1.00;;;0.70;;
78412;SDS011;67707;52.348;13.660;2023-03-01T14:24:44;1.10;;;0.82;;
78412;SDS011;67707;52.348;13.660;2023-03-01T14:27:12;1.00;;;0.75;;
78412;SDS011;67707;52.348;13.660;2023-03-01T14:29:39;1.38;;;1.27;;
78412;SDS011;67707;52.348;13.660;2023-03-01T14:32:08;1.48;;;1.00;;
78412;SDS011;67707;52.348;13.660;2023-03-01T14:34:36;1.55;;;0.80;;
78412;SDS011;67707;52.348;13.660;2023-03-01T14:37:18;1.05;;;0.93;;
78412;SDS011;67707;52.348;13.660;2023-03-01T14:39:48;1.52;;;1.20;;
78412;SDS011;67707;52.348;13.660;2023-03-01T14:42:14;1.23;;;0.82;;
78412;SDS011;67707;52.348;13.660;2023-03-01T14:44:41;1.00;;;0.65;;
78412;SDS011;67707;52.348;13.660;2023-03-01T14:47:10;1.33;;;0.85;;
78412;SDS011;67707;52.348;13.660;2023-03-01T14:49:38;1.33;;;1.00;;
78412;SDS011;67707;52.348;13.660;2023-03-01T14:52:05;1.40;;;0.90;;
78412;SDS011;67707;52.348;13.660;2023-03-01T14:57:20;1.33;;;1.23;;
78412;SDS011;67707;52.348;13.660;2023-03-01T14:59:48;1.15;;;1.00;;
78412;SDS011;67707;52.348;13.660;2023-03-01T15:02:16;1.35;;;0.90;;
78412;SDS011;67707;52.348;13.660;2023-03-01T15:04:48;0.80;;;0.32;;
78412;SDS011;67707;52.348;13.660;2023-03-01T15:07:14;0.90;;;0.70;;
78412;SDS011;67707;52.348;13.660;2023-03-01T15:09:40;1.88;;;1.67;;
78412;SDS011;67707;52.348;13.660;2023-03-01T15:14:54;1.42;;;0.65;;
78412;SDS011;67707;52.348;13.660;2023-03-01T15:19:57;0.85;;;0.65;;
78412;SDS011;67707;52.348;13.660;2023-03-01T15:22:23;1.17;;;0.70;;
78412;SDS011;67707;52.348;13.660;2023-03-01T15:24:52;1.00;;;0.70;;
78412;SDS011;67707;52.348;13.660;2023-03-01T15:27:20;1.13;;;0.95;;
78412;SDS011;67707;52.348;13.660;2023-03-01T15:29:51;1.20;;;1.00;;
78412;SDS011;67707;52.348;13.660;2023-03-01T15:32:32;1.30;;;1.00;;
78412;SDS011;67707;52.348;13.660;2023-03-01T15:34:59;1.25;;;0.82;;
78412;SDS011;67707;52.348;13.660;2023-03-01T15:37:39;1.05;;;0.75;;
78412;SDS011;67707;52.348;13.660;2023-03-01T15:43:04;1.17;;;0.70;;
78412;SDS011;67707;52.348;13.660;2023-03-01T15:45:30;1.23;;;0.80;;
78412;SDS011;67707;52.348;13.660;2023-03-01T15:48:05;1.20;;;1.00;;
78412;SDS011;67707;52.348;13.660;2023-03-01T15:50:40;1.40;;;0.85;;
78412;SDS011;67707;52.348;13.660;2023-03-01T15:53:06;1.70;;;0.95;;
78412;SDS011;67707;52.348;13.660;2023-03-01T15:55:36;1.25;;;0.98;;
78412;SDS011;67707;52.348;13.660;2023-03-01T16:00:31;1.17;;;0.75;;
78412;SDS011;67707;52.348;13.660;2023-03-01T16:02:56;0.85;;;0.40;;
78412;SDS011;67707;52.348;13.660;2023-03-01T16:05:23;1.00;;;0.60;;
78412;SDS011;67707;52.348;13.660;2023-03-01T16:07:49;1.17;;;0.90;;
78412;SDS011;67707;52.348;13.660;2023-03-01T16:10:15;2.00;;;1.90;;
78412;SDS011;67707;52.348;13.660;2023-03-01T16:12:41;1.25;;;0.82;;
78412;SDS011;67707;52.348;13.660;2023-03-01T16:15:17;1.02;;;0.57;;
78412;SDS011;67707;52.348;13.660;2023-03-01T16:17:46;1.35;;;0.73;;
78412;SDS011;67707;52.348;13.660;2023-03-01T16:20:12;4.43;;;2.33;;
78412;SDS011;67707;52.348;13.660;2023-03-01T16:22:40;1.27;;;0.70;;
78412;SDS011;67707;52.348;13.660;2023-03-01T16:25:08;1.20;;;0.70;;
78412;SDS011;67707;52.348;13.660;2023-03-01T16:27:35;1.55;;;0.73;;
78412;SDS011;67707;52.348;13.660;2023-03-01T16:30:00;1.35;;;0.85;;
78412;SDS011;67707;52.348;13.660;2023-03-01T16:32:25;1.25;;;0.75;;
78412;SDS011;67707;52.348;13.660;2023-03-01T16:34:51;1.95;;;1.08;;
78412;SDS011;67707;52.348;13.660;2023-03-01T16:37:16;1.55;;;0.95;;
78412;SDS011;67707;52.348;13.660;2023-03-01T16:39:44;1.60;;;1.00;;
78412;SDS011;67707;52.348;13.660;2023-03-01T16:42:10;1.35;;;0.90;;
78412;SDS011;67707;52.348;13.660;2023-03-01T16:44:35;1.13;;;0.80;;
78412;SDS011;67707;52.348;13.660;2023-03-01T16:47:01;1.03;;;0.67;;
78412;SDS011;67707;52.348;13.660;2023-03-01T16:49:26;1.60;;;1.50;;
78412;SDS011;67707;52.348;13.660;2023-03-01T16:51:53;1.13;;;0.70;;
78412;SDS011;67707;52.348;13.660;2023-03-01T16:54:18;1.60;;;0.40;;
78412;SDS011;67707;52.348;13.660;2023-03-01T16:56:44;1.20;;;0.90;;
78412;SDS011;67707;52.348;13.660;2023-03-01T16:59:09;1.80;;;0.90;;
78412;SDS011;67707;52.348;13.660;2023-03-01T17:01:34;2.70;;;1.25;;
78412;SDS011;67707;52.348;13.660;2023-03-01T17:04:05;1.58;;;1.17;;
78412;SDS011;67707;52.348;13.660;2023-03-01T17:06:31;1.30;;;0.85;;
78412;SDS011;67707;52.348;13.660;2023-03-01T17:08:57;1.80;;;1.27;;
78412;SDS011;67707;52.348;13.660;2023-03-01T17:11:24;2.60;;;1.88;;